Bear Butte, South Dakota
Current Conditions -  °F | °C
As of 7:58 AM on Thursday 30 Oct 2014 (Local Time) from KRCA Reporting Station
Clear Clear  
Wind Chill: 41°   Ceiling: Unl
Heat Index: 45°   Visibility: 10mi
Dew Point: 33°   Wind: 8mph
Humidity: 62%   Direction: 330°NNW
Pressure: 30.24"   Gusts: NA
Location:  44.4145°N, 103.17°W
Report Text: KRCA 301358Z AUTO 33007KT 10SM CLR 07/00 A3024 RMK AO2 SLP253 T00730004 $
Loading
Personal Weather Stations






























Interactive Weather Map
Tropical Storm Tracking
New forecast layout! Learn more

10-Day Weather Forecast

Advertisements
Track Severe Weather on mobile